sensor_id;sensor_type;location;lat;lon;timestamp;P1;durP1;ratioP1;P2;durP2;ratioP2
42432;SDS011;28071;48.232;20.668;2023-09-19T00:03:25;1.02;;;0.80;;
42432;SDS011;28071;48.232;20.668;2023-09-19T00:08:26;1.30;;;1.00;;
42432;SDS011;28071;48.232;20.668;2023-09-19T00:13:27;1.30;;;0.55;;
42432;SDS011;28071;48.232;20.668;2023-09-19T00:18:28;1.38;;;0.60;;
42432;SDS011;28071;48.232;20.668;2023-09-19T00:23:32;1.05;;;0.60;;
42432;SDS011;28071;48.232;20.668;2023-09-19T00:28:33;0.80;;;0.52;;
42432;SDS011;28071;48.232;20.668;2023-09-19T00:33:33;0.70;;;0.38;;
42432;SDS011;28071;48.232;20.668;2023-09-19T00:38:34;0.85;;;0.73;;
42432;SDS011;28071;48.232;20.668;2023-09-19T00:43:34;1.67;;;1.03;;
42432;SDS011;28071;48.232;20.668;2023-09-19T00:48:38;0.60;;;0.60;;
42432;SDS011;28071;48.232;20.668;2023-09-19T00:53:44;3.33;;;1.35;;
42432;SDS011;28071;48.232;20.668;2023-09-19T00:58:46;1.40;;;0.82;;
42432;SDS011;28071;48.232;20.668;2023-09-19T01:03:47;1.02;;;0.90;;
42432;SDS011;28071;48.232;20.668;2023-09-19T01:08:48;1.55;;;0.70;;
42432;SDS011;28071;48.232;20.668;2023-09-19T01:13:55;1.27;;;0.87;;
42432;SDS011;28071;48.232;20.668;2023-09-19T01:19:42;1.83;;;0.77;;
42432;SDS011;28071;48.232;20.668;2023-09-19T01:30:17;2.67;;;1.63;;
42432;SDS011;28071;48.232;20.668;2023-09-19T01:35:22;1.45;;;0.80;;
42432;SDS011;28071;48.232;20.668;2023-09-19T01:40:22;0.80;;;0.60;;
42432;SDS011;28071;48.232;20.668;2023-09-19T01:56:00;1.52;;;0.90;;
42432;SDS011;28071;48.232;20.668;2023-09-19T02:01:02;1.98;;;1.10;;
42432;SDS011;28071;48.232;20.668;2023-09-19T02:06:05;2.50;;;1.13;;
42432;SDS011;28071;48.232;20.668;2023-09-19T02:11:11;1.35;;;1.02;;
42432;SDS011;28071;48.232;20.668;2023-09-19T02:16:13;1.38;;;1.00;;
42432;SDS011;28071;48.232;20.668;2023-09-19T02:21:17;1.38;;;1.15;;
42432;SDS011;28071;48.232;20.668;2023-09-19T02:26:17;1.25;;;1.10;;
42432;SDS011;28071;48.232;20.668;2023-09-19T02:31:18;1.15;;;1.00;;
42432;SDS011;28071;48.232;20.668;2023-09-19T02:36:19;1.08;;;0.95;;
42432;SDS011;28071;48.232;20.668;2023-09-19T02:41:19;1.85;;;1.15;;
42432;SDS011;28071;48.232;20.668;2023-09-19T02:46:20;1.23;;;0.95;;
42432;SDS011;28071;48.232;20.668;2023-09-19T02:51:20;1.83;;;1.20;;
42432;SDS011;28071;48.232;20.668;2023-09-19T02:56:20;2.05;;;1.17;;
42432;SDS011;28071;48.232;20.668;2023-09-19T03:01:22;1.80;;;1.00;;
42432;SDS011;28071;48.232;20.668;2023-09-19T03:06:22;1.45;;;1.20;;
42432;SDS011;28071;48.232;20.668;2023-09-19T03:11:23;1.88;;;1.10;;
42432;SDS011;28071;48.232;20.668;2023-09-19T03:16:24;1.85;;;1.02;;
42432;SDS011;28071;48.232;20.668;2023-09-19T03:21:25;2.00;;;0.95;;
42432;SDS011;28071;48.232;20.668;2023-09-19T03:26:25;2.42;;;1.23;;
42432;SDS011;28071;48.232;20.668;2023-09-19T03:31:26;2.85;;;1.75;;
42432;SDS011;28071;48.232;20.668;2023-09-19T03:36:28;1.15;;;1.05;;
42432;SDS011;28071;48.232;20.668;2023-09-19T03:41:29;1.85;;;1.02;;
42432;SDS011;28071;48.232;20.668;2023-09-19T03:46:29;1.80;;;0.83;;
42432;SDS011;28071;48.232;20.668;2023-09-19T03:51:30;1.45;;;1.17;;
42432;SDS011;28071;48.232;20.668;2023-09-19T03:56:31;2.45;;;0.93;;
42432;SDS011;28071;48.232;20.668;2023-09-19T04:01:31;1.15;;;0.70;;
42432;SDS011;28071;48.232;20.668;2023-09-19T04:06:32;2.13;;;1.52;;
42432;SDS011;28071;48.232;20.668;2023-09-19T04:11:33;2.33;;;1.30;;
42432;SDS011;28071;48.232;20.668;2023-09-19T04:16:33;1.70;;;1.15;;
42432;SDS011;28071;48.232;20.668;2023-09-19T04:21:33;1.37;;;1.27;;
42432;SDS011;28071;48.232;20.668;2023-09-19T04:26:34;1.43;;;1.23;;
42432;SDS011;28071;48.232;20.668;2023-09-19T04:31:34;1.27;;;1.17;;
42432;SDS011;28071;48.232;20.668;2023-09-19T04:36:34;3.03;;;1.30;;
42432;SDS011;28071;48.232;20.668;2023-09-19T04:41:36;1.95;;;1.25;;
42432;SDS011;28071;48.232;20.668;2023-09-19T04:46:38;2.53;;;1.13;;
42432;SDS011;28071;48.232;20.668;2023-09-19T04:51:39;2.55;;;1.50;;
42432;SDS011;28071;48.232;20.668;2023-09-19T04:56:40;3.50;;;1.83;;
42432;SDS011;28071;48.232;20.668;2023-09-19T05:01:40;1.55;;;1.10;;
42432;SDS011;28071;48.232;20.668;2023-09-19T05:06:41;2.30;;;1.38;;
42432;SDS011;28071;48.232;20.668;2023-09-19T05:11:41;1.70;;;1.00;;
42432;SDS011;28071;48.232;20.668;2023-09-19T05:16:41;3.58;;;1.33;;
42432;SDS011;28071;48.232;20.668;2023-09-19T05:21:42;2.15;;;1.17;;
42432;SDS011;28071;48.232;20.668;2023-09-19T05:26:43;1.30;;;1.00;;
42432;SDS011;28071;48.232;20.668;2023-09-19T05:31:44;2.20;;;1.33;;
42432;SDS011;28071;48.232;20.668;2023-09-19T05:36:44;1.27;;;1.05;;
42432;SDS011;28071;48.232;20.668;2023-09-19T05:41:44;1.43;;;1.03;;
42432;SDS011;28071;48.232;20.668;2023-09-19T05:46:47;2.03;;;1.35;;
42432;SDS011;28071;48.232;20.668;2023-09-19T05:51:48;1.13;;;1.02;;
42432;SDS011;28071;48.232;20.668;2023-09-19T05:56:48;1.45;;;1.23;;
42432;SDS011;28071;48.232;20.668;2023-09-19T06:01:52;2.05;;;1.33;;
42432;SDS011;28071;48.232;20.668;2023-09-19T06:06:53;3.17;;;0.88;;
42432;SDS011;28071;48.232;20.668;2023-09-19T06:11:53;2.25;;;0.95;;
42432;SDS011;28071;48.232;20.668;2023-09-19T06:16:55;2.17;;;1.08;;
42432;SDS011;28071;48.232;20.668;2023-09-19T06:21:55;5.07;;;1.70;;
42432;SDS011;28071;48.232;20.668;2023-09-19T06:26:56;1.48;;;0.80;;
42432;SDS011;28071;48.232;20.668;2023-09-19T06:31:56;1.17;;;0.73;;
42432;SDS011;28071;48.232;20.668;2023-09-19T06:36:57;0.83;;;0.73;;
42432;SDS011;28071;48.232;20.668;2023-09-19T06:41:57;0.80;;;0.57;;
42432;SDS011;28071;48.232;20.668;2023-09-19T06:46:58;1.20;;;0.90;;
42432;SDS011;28071;48.232;20.668;2023-09-19T06:51:58;0.88;;;0.82;;
42432;SDS011;28071;48.232;20.668;2023-09-19T06:56:59;1.25;;;0.80;;
42432;SDS011;28071;48.232;20.668;2023-09-19T07:02:00;1.63;;;0.85;;
42432;SDS011;28071;48.232;20.668;2023-09-19T07:07:00;0.80;;;0.60;;
42432;SDS011;28071;48.232;20.668;2023-09-19T07:12:00;1.73;;;0.93;;
42432;SDS011;28071;48.232;20.668;2023-09-19T07:17:01;0.98;;;0.75;;
42432;SDS011;28071;48.232;20.668;2023-09-19T07:22:01;1.17;;;0.90;;
42432;SDS011;28071;48.232;20.668;2023-09-19T07:27:02;2.63;;;1.27;;
42432;SDS011;28071;48.232;20.668;2023-09-19T07:32:03;1.73;;;0.82;;
42432;SDS011;28071;48.232;20.668;2023-09-19T07:37:04;0.73;;;0.70;;
42432;SDS011;28071;48.232;20.668;2023-09-19T07:42:04;1.20;;;0.73;;
42432;SDS011;28071;48.232;20.668;2023-09-19T07:47:07;1.42;;;0.88;;
42432;SDS011;28071;48.232;20.668;2023-09-19T07:52:08;4.72;;;1.15;;
42432;SDS011;28071;48.232;20.668;2023-09-19T07:57:09;1.67;;;1.20;;
42432;SDS011;28071;48.232;20.668;2023-09-19T08:02:11;2.53;;;1.30;;
42432;SDS011;28071;48.232;20.668;2023-09-19T08:07:21;4.55;;;1.40;;
42432;SDS011;28071;48.232;20.668;2023-09-19T08:12:23;1.33;;;0.90;;
42432;SDS011;28071;48.232;20.668;2023-09-19T08:17:23;4.00;;;1.75;;
42432;SDS011;28071;48.232;20.668;2023-09-19T08:22:24;2.75;;;1.08;;
42432;SDS011;28071;48.232;20.668;2023-09-19T08:27:24;4.07;;;1.80;;
42432;SDS011;28071;48.232;20.668;2023-09-19T08:32:28;3.13;;;1.52;;
42432;SDS011;28071;48.232;20.668;2023-09-19T08:37:28;2.83;;;1.80;;
42432;SDS011;28071;48.232;20.668;2023-09-19T08:42:29;2.60;;;1.05;;
42432;SDS011;28071;48.232;20.668;2023-09-19T08:47:38;1.50;;;1.30;;
42432;SDS011;28071;48.232;20.668;2023-09-19T08:53:04;1.63;;;1.10;;
42432;SDS011;28071;48.232;20.668;2023-09-19T08:58:11;1.80;;;0.98;;
42432;SDS011;28071;48.232;20.668;2023-09-19T09:03:19;2.08;;;1.17;;
42432;SDS011;28071;48.232;20.668;2023-09-19T09:08:21;2.42;;;1.25;;
42432;SDS011;28071;48.232;20.668;2023-09-19T09:13:22;2.25;;;1.25;;
42432;SDS011;28071;48.232;20.668;2023-09-19T09:18:26;1.70;;;1.40;;
42432;SDS011;28071;48.232;20.668;2023-09-19T09:23:28;1.45;;;1.23;;
42432;SDS011;28071;48.232;20.668;2023-09-19T09:28:30;1.95;;;1.13;;
42432;SDS011;28071;48.232;20.668;2023-09-19T09:33:31;1.42;;;0.85;;
42432;SDS011;28071;48.232;20.668;2023-09-19T09:38:47;4.90;;;1.43;;
42432;SDS011;28071;48.232;20.668;2023-09-19T09:43:55;2.42;;;1.25;;
42432;SDS011;28071;48.232;20.668;2023-09-19T09:54:19;1.52;;;1.15;;
42432;SDS011;28071;48.232;20.668;2023-09-19T09:59:21;1.75;;;1.25;;
42432;SDS011;28071;48.232;20.668;2023-09-19T10:04:27;1.75;;;1.10;;
42432;SDS011;28071;48.232;20.668;2023-09-19T10:09:46;2.22;;;1.65;;
42432;SDS011;28071;48.232;20.668;2023-09-19T10:14:47;2.30;;;1.70;;
42432;SDS011;28071;48.232;20.668;2023-09-19T10:19:59;1.95;;;1.75;;
42432;SDS011;28071;48.232;20.668;2023-09-19T10:25:05;2.40;;;1.30;;
42432;SDS011;28071;48.232;20.668;2023-09-19T10:30:08;4.30;;;1.25;;
42432;SDS011;28071;48.232;20.668;2023-09-19T10:35:11;3.55;;;1.20;;
42432;SDS011;28071;48.232;20.668;2023-09-19T10:40:13;2.67;;;1.65;;
42432;SDS011;28071;48.232;20.668;2023-09-19T10:45:16;2.47;;;1.42;;
42432;SDS011;28071;48.232;20.668;2023-09-19T10:50:21;2.33;;;1.50;;
42432;SDS011;28071;48.232;20.668;2023-09-19T10:55:24;2.97;;;1.80;;
42432;SDS011;28071;48.232;20.668;2023-09-19T11:00:29;3.75;;;2.08;;
42432;SDS011;28071;48.232;20.668;2023-09-19T11:05:34;2.63;;;1.77;;
42432;SDS011;28071;48.232;20.668;2023-09-19T11:10:44;2.08;;;1.50;;
42432;SDS011;28071;48.232;20.668;2023-09-19T11:26:40;2.75;;;1.00;;
42432;SDS011;28071;48.232;20.668;2023-09-19T11:31:47;1.90;;;1.08;;
42432;SDS011;28071;48.232;20.668;2023-09-19T11:36:49;2.63;;;1.05;;
42432;SDS011;28071;48.232;20.668;2023-09-19T11:41:50;1.00;;;0.70;;
42432;SDS011;28071;48.232;20.668;2023-09-19T11:46:56;1.35;;;0.90;;
42432;SDS011;28071;48.232;20.668;2023-09-19T11:51:59;1.52;;;1.42;;
42432;SDS011;28071;48.232;20.668;2023-09-19T11:57:08;2.00;;;1.33;;
42432;SDS011;28071;48.232;20.668;2023-09-19T12:02:09;1.48;;;1.00;;
42432;SDS011;28071;48.232;20.668;2023-09-19T12:07:18;1.67;;;1.05;;
42432;SDS011;28071;48.232;20.668;2023-09-19T12:12:20;2.08;;;1.45;;
42432;SDS011;28071;48.232;20.668;2023-09-19T12:17:39;1.98;;;0.90;;
42432;SDS011;28071;48.232;20.668;2023-09-19T12:22:46;1.63;;;0.70;;
42432;SDS011;28071;48.232;20.668;2023-09-19T12:27:47;1.33;;;1.23;;
42432;SDS011;28071;48.232;20.668;2023-09-19T12:33:02;2.42;;;1.33;;
42432;SDS011;28071;48.232;20.668;2023-09-19T12:38:03;3.92;;;1.95;;
42432;SDS011;28071;48.232;20.668;2023-09-19T12:43:03;2.10;;;1.45;;
42432;SDS011;28071;48.232;20.668;2023-09-19T12:53:25;1.80;;;1.35;;
42432;SDS011;28071;48.232;20.668;2023-09-19T12:58:29;3.35;;;2.03;;
42432;SDS011;28071;48.232;20.668;2023-09-19T13:03:30;2.53;;;1.92;;
42432;SDS011;28071;48.232;20.668;2023-09-19T13:08:37;2.97;;;1.90;;
42432;SDS011;28071;48.232;20.668;2023-09-19T13:13:45;4.03;;;1.42;;
42432;SDS011;28071;48.232;20.668;2023-09-19T13:18:49;2.05;;;1.30;;
42432;SDS011;28071;48.232;20.668;2023-09-19T13:23:55;1.75;;;1.40;;
42432;SDS011;28071;48.232;20.668;2023-09-19T13:28:59;2.33;;;1.30;;
42432;SDS011;28071;48.232;20.668;2023-09-19T13:33:59;1.27;;;1.08;;
42432;SDS011;28071;48.232;20.668;2023-09-19T13:39:00;2.47;;;1.58;;
42432;SDS011;28071;48.232;20.668;2023-09-19T13:44:00;2.95;;;1.45;;
42432;SDS011;28071;48.232;20.668;2023-09-19T13:49:01;1.65;;;1.17;;
42432;SDS011;28071;48.232;20.668;2023-09-19T13:54:03;1.83;;;1.20;;
42432;SDS011;28071;48.232;20.668;2023-09-19T13:59:03;1.73;;;1.05;;
42432;SDS011;28071;48.232;20.668;2023-09-19T14:04:04;1.63;;;1.13;;
42432;SDS011;28071;48.232;20.668;2023-09-19T14:09:05;0.73;;;0.70;;
42432;SDS011;28071;48.232;20.668;2023-09-19T14:14:07;2.60;;;1.38;;
42432;SDS011;28071;48.232;20.668;2023-09-19T14:19:08;1.48;;;1.00;;
42432;SDS011;28071;48.232;20.668;2023-09-19T14:24:08;2.55;;;1.30;;
42432;SDS011;28071;48.232;20.668;2023-09-19T14:29:09;0.75;;;0.55;;
42432;SDS011;28071;48.232;20.668;2023-09-19T14:34:11;1.45;;;0.98;;
42432;SDS011;28071;48.232;20.668;2023-09-19T14:39:12;2.72;;;1.23;;
42432;SDS011;28071;48.232;20.668;2023-09-19T14:44:12;1.38;;;0.63;;
42432;SDS011;28071;48.232;20.668;2023-09-19T14:49:13;5.22;;;1.17;;
42432;SDS011;28071;48.232;20.668;2023-09-19T14:54:15;1.20;;;0.75;;
42432;SDS011;28071;48.232;20.668;2023-09-19T14:59:19;1.27;;;1.10;;
42432;SDS011;28071;48.232;20.668;2023-09-19T15:04:20;2.92;;;1.58;;
42432;SDS011;28071;48.232;20.668;2023-09-19T15:09:21;2.67;;;2.00;;
42432;SDS011;28071;48.232;20.668;2023-09-19T15:14:26;1.48;;;1.05;;
42432;SDS011;28071;48.232;20.668;2023-09-19T15:19:27;2.83;;;1.52;;
42432;SDS011;28071;48.232;20.668;2023-09-19T15:24:27;3.42;;;2.22;;
42432;SDS011;28071;48.232;20.668;2023-09-19T15:29:28;2.72;;;1.33;;
42432;SDS011;28071;48.232;20.668;2023-09-19T15:34:29;2.22;;;1.27;;
42432;SDS011;28071;48.232;20.668;2023-09-19T15:39:30;1.58;;;1.20;;
42432;SDS011;28071;48.232;20.668;2023-09-19T15:44:33;1.23;;;0.95;;
42432;SDS011;28071;48.232;20.668;2023-09-19T15:49:34;1.95;;;1.70;;
42432;SDS011;28071;48.232;20.668;2023-09-19T15:54:35;3.88;;;1.83;;
42432;SDS011;28071;48.232;20.668;2023-09-19T15:59:42;2.20;;;1.60;;
42432;SDS011;28071;48.232;20.668;2023-09-19T16:04:44;2.63;;;1.27;;
42432;SDS011;28071;48.232;20.668;2023-09-19T16:09:45;1.77;;;0.98;;
42432;SDS011;28071;48.232;20.668;2023-09-19T16:14:46;1.33;;;1.10;;
42432;SDS011;28071;48.232;20.668;2023-09-19T16:19:46;2.28;;;1.45;;
42432;SDS011;28071;48.232;20.668;2023-09-19T16:24:47;2.03;;;1.35;;
42432;SDS011;28071;48.232;20.668;2023-09-19T16:29:48;1.63;;;1.38;;
42432;SDS011;28071;48.232;20.668;2023-09-19T16:34:50;1.05;;;1.00;;
42432;SDS011;28071;48.232;20.668;2023-09-19T16:39:52;3.22;;;1.60;;
42432;SDS011;28071;48.232;20.668;2023-09-19T16:44:53;1.95;;;1.25;;
42432;SDS011;28071;48.232;20.668;2023-09-19T16:49:55;2.47;;;1.48;;
42432;SDS011;28071;48.232;20.668;2023-09-19T16:54:56;2.28;;;1.13;;
42432;SDS011;28071;48.232;20.668;2023-09-19T16:59:56;1.42;;;1.30;;
42432;SDS011;28071;48.232;20.668;2023-09-19T17:04:57;2.00;;;1.15;;
42432;SDS011;28071;48.232;20.668;2023-09-19T17:09:58;2.30;;;1.25;;
42432;SDS011;28071;48.232;20.668;2023-09-19T17:15:00;2.33;;;1.20;;
42432;SDS011;28071;48.232;20.668;2023-09-19T17:20:00;1.35;;;1.10;;
42432;SDS011;28071;48.232;20.668;2023-09-19T17:25:02;2.80;;;1.30;;
42432;SDS011;28071;48.232;20.668;2023-09-19T17:30:03;1.83;;;1.33;;
42432;SDS011;28071;48.232;20.668;2023-09-19T17:35:05;2.55;;;1.27;;
42432;SDS011;28071;48.232;20.668;2023-09-19T17:40:10;1.58;;;1.27;;
42432;SDS011;28071;48.232;20.668;2023-09-19T17:45:12;1.60;;;1.10;;
42432;SDS011;28071;48.232;20.668;2023-09-19T17:50:16;1.83;;;1.15;;
42432;SDS011;28071;48.232;20.668;2023-09-19T17:55:19;1.65;;;1.27;;
42432;SDS011;28071;48.232;20.668;2023-09-19T18:00:22;1.67;;;0.88;;
42432;SDS011;28071;48.232;20.668;2023-09-19T18:05:23;1.40;;;0.88;;
42432;SDS011;28071;48.232;20.668;2023-09-19T18:10:24;1.17;;;0.85;;
42432;SDS011;28071;48.232;20.668;2023-09-19T18:15:26;1.80;;;1.00;;
42432;SDS011;28071;48.232;20.668;2023-09-19T18:20:33;1.37;;;0.90;;
42432;SDS011;28071;48.232;20.668;2023-09-19T18:25:38;1.27;;;0.85;;
42432;SDS011;28071;48.232;20.668;2023-09-19T18:30:38;0.47;;;0.35;;
42432;SDS011;28071;48.232;20.668;2023-09-19T18:35:40;1.10;;;0.88;;
42432;SDS011;28071;48.232;20.668;2023-09-19T18:40:44;0.85;;;0.65;;
42432;SDS011;28071;48.232;20.668;2023-09-19T18:45:54;1.83;;;0.70;;
42432;SDS011;28071;48.232;20.668;2023-09-19T18:50:55;1.02;;;0.65;;
42432;SDS011;28071;48.232;20.668;2023-09-19T18:56:06;1.88;;;0.50;;
42432;SDS011;28071;48.232;20.668;2023-09-19T19:01:13;1.13;;;0.88;;
42432;SDS011;28071;48.232;20.668;2023-09-19T19:06:16;3.00;;;0.50;;
42432;SDS011;28071;48.232;20.668;2023-09-19T19:11:17;0.35;;;0.32;;
42432;SDS011;28071;48.232;20.668;2023-09-19T19:16:22;0.52;;;0.50;;
42432;SDS011;28071;48.232;20.668;2023-09-19T19:21:26;0.30;;;0.30;;
42432;SDS011;28071;48.232;20.668;2023-09-19T19:26:27;1.30;;;0.55;;
42432;SDS011;28071;48.232;20.668;2023-09-19T19:31:28;1.02;;;0.88;;
42432;SDS011;28071;48.232;20.668;2023-09-19T19:36:30;0.82;;;0.82;;
42432;SDS011;28071;48.232;20.668;2023-09-19T19:41:34;2.67;;;0.30;;
42432;SDS011;28071;48.232;20.668;2023-09-19T19:46:38;0.60;;;0.30;;
42432;SDS011;28071;48.232;20.668;2023-09-19T19:51:39;0.55;;;0.45;;
42432;SDS011;28071;48.232;20.668;2023-09-19T19:56:43;0.40;;;0.30;;
42432;SDS011;28071;48.232;20.668;2023-09-19T20:01:44;2.30;;;0.40;;
42432;SDS011;28071;48.232;20.668;2023-09-19T20:06:45;0.20;;;0.20;;
42432;SDS011;28071;48.232;20.668;2023-09-19T20:11:46;0.93;;;0.30;;
42432;SDS011;28071;48.232;20.668;2023-09-19T20:16:48;0.10;;;0.10;;
42432;SDS011;28071;48.232;20.668;2023-09-19T20:21:49;1.42;;;0.50;;
42432;SDS011;28071;48.232;20.668;2023-09-19T20:26:50;0.40;;;0.30;;
42432;SDS011;28071;48.232;20.668;2023-09-19T20:31:54;0.10;;;0.10;;
42432;SDS011;28071;48.232;20.668;2023-09-19T20:36:56;0.22;;;0.22;;
42432;SDS011;28071;48.232;20.668;2023-09-19T20:41:57;0.52;;;0.45;;
42432;SDS011;28071;48.232;20.668;2023-09-19T20:46:58;1.70;;;0.80;;
42432;SDS011;28071;48.232;20.668;2023-09-19T20:51:59;2.08;;;0.50;;
42432;SDS011;28071;48.232;20.668;2023-09-19T20:56:59;0.80;;;0.73;;
42432;SDS011;28071;48.232;20.668;2023-09-19T21:02:00;2.20;;;0.77;;
42432;SDS011;28071;48.232;20.668;2023-09-19T21:07:01;2.75;;;0.70;;
42432;SDS011;28071;48.232;20.668;2023-09-19T21:12:01;0.43;;;0.30;;
42432;SDS011;28071;48.232;20.668;2023-09-19T21:17:01;1.05;;;0.40;;
42432;SDS011;28071;48.232;20.668;2023-09-19T21:22:03;1.13;;;0.30;;
42432;SDS011;28071;48.232;20.668;2023-09-19T21:27:04;0.20;;;0.20;;
42432;SDS011;28071;48.232;20.668;2023-09-19T21:32:04;1.80;;;0.63;;
42432;SDS011;28071;48.232;20.668;2023-09-19T21:37:05;0.82;;;0.73;;
42432;SDS011;28071;48.232;20.668;2023-09-19T21:42:08;1.02;;;0.60;;
42432;SDS011;28071;48.232;20.668;2023-09-19T21:47:08;0.95;;;0.45;;
42432;SDS011;28071;48.232;20.668;2023-09-19T21:52:09;0.57;;;0.47;;
42432;SDS011;28071;48.232;20.668;2023-09-19T21:57:10;0.52;;;0.30;;
42432;SDS011;28071;48.232;20.668;2023-09-19T22:02:10;0.50;;;0.50;;
42432;SDS011;28071;48.232;20.668;2023-09-19T22:07:11;0.50;;;0.50;;
42432;SDS011;28071;48.232;20.668;2023-09-19T22:12:11;0.80;;;0.80;;
42432;SDS011;28071;48.232;20.668;2023-09-19T22:17:13;0.55;;;0.40;;
42432;SDS011;28071;48.232;20.668;2023-09-19T22:22:13;1.23;;;0.82;;
42432;SDS011;28071;48.232;20.668;2023-09-19T22:27:17;1.15;;;1.05;;
42432;SDS011;28071;48.232;20.668;2023-09-19T22:32:20;1.65;;;0.50;;
42432;SDS011;28071;48.232;20.668;2023-09-19T22:37:20;4.57;;;0.80;;
42432;SDS011;28071;48.232;20.668;2023-09-19T22:42:24;2.40;;;0.77;;
42432;SDS011;28071;48.232;20.668;2023-09-19T22:47:25;0.70;;;0.70;;
42432;SDS011;28071;48.232;20.668;2023-09-19T22:52:26;1.00;;;0.85;;
42432;SDS011;28071;48.232;20.668;2023-09-19T22:57:29;0.77;;;0.70;;
42432;SDS011;28071;48.232;20.668;2023-09-19T23:02:29;0.75;;;0.73;;
42432;SDS011;28071;48.232;20.668;2023-09-19T23:07:30;1.52;;;0.60;;
42432;SDS011;28071;48.232;20.668;2023-09-19T23:12:31;1.35;;;0.98;;
42432;SDS011;28071;48.232;20.668;2023-09-19T23:17:32;1.27;;;0.60;;
42432;SDS011;28071;48.232;20.668;2023-09-19T23:22:36;1.52;;;0.85;;
42432;SDS011;28071;48.232;20.668;2023-09-19T23:27:36;1.67;;;1.00;;
42432;SDS011;28071;48.232;20.668;2023-09-19T23:32:37;0.88;;;0.50;;
42432;SDS011;28071;48.232;20.668;2023-09-19T23:37:37;1.15;;;0.80;;
42432;SDS011;28071;48.232;20.668;2023-09-19T23:42:37;1.03;;;0.60;;
42432;SDS011;28071;48.232;20.668;2023-09-19T23:47:40;0.60;;;0.60;;
42432;SDS011;28071;48.232;20.668;2023-09-19T23:52:41;2.60;;;1.08;;
42432;SDS011;28071;48.232;20.668;2023-09-19T23:57:42;0.57;;;0.40;;
